sensor_id;sensor_type;location;lat;lon;timestamp;P1;durP1;ratioP1;P2;durP2;ratioP2
81056;SDS011;70563;50.084;14.468;2023-07-08T00:00:27;4.95;;;2.70;;
81056;SDS011;70563;50.084;14.468;2023-07-08T00:02:53;5.72;;;2.53;;
81056;SDS011;70563;50.084;14.468;2023-07-08T00:05:19;4.07;;;2.90;;
81056;SDS011;70563;50.084;14.468;2023-07-08T00:07:47;5.88;;;2.67;;
81056;SDS011;70563;50.084;14.468;2023-07-08T00:12:44;3.92;;;2.78;;
81056;SDS011;70563;50.084;14.468;2023-07-08T00:15:13;3.92;;;2.67;;
81056;SDS011;70563;50.084;14.468;2023-07-08T00:17:38;4.65;;;3.35;;
81056;SDS011;70563;50.084;14.468;2023-07-08T00:20:23;4.75;;;2.72;;
81056;SDS011;70563;50.084;14.468;2023-07-08T00:22:56;3.78;;;2.53;;
81056;SDS011;70563;50.084;14.468;2023-07-08T00:25:22;4.05;;;3.00;;
81056;SDS011;70563;50.084;14.468;2023-07-08T00:27:48;4.32;;;2.65;;
81056;SDS011;70563;50.084;14.468;2023-07-08T00:32:45;5.60;;;2.95;;
81056;SDS011;70563;50.084;14.468;2023-07-08T00:35:10;5.55;;;3.40;;
81056;SDS011;70563;50.084;14.468;2023-07-08T00:37:35;3.15;;;2.40;;
81056;SDS011;70563;50.084;14.468;2023-07-08T00:40:04;4.90;;;2.58;;
81056;SDS011;70563;50.084;14.468;2023-07-08T00:42:39;4.47;;;3.05;;
81056;SDS011;70563;50.084;14.468;2023-07-08T00:45:28;4.85;;;2.88;;
81056;SDS011;70563;50.084;14.468;2023-07-08T00:47:55;4.70;;;2.65;;
81056;SDS011;70563;50.084;14.468;2023-07-08T00:50:24;7.07;;;2.92;;
81056;SDS011;70563;50.084;14.468;2023-07-08T00:52:50;4.38;;;2.63;;
81056;SDS011;70563;50.084;14.468;2023-07-08T00:56:16;4.60;;;3.08;;
81056;SDS011;70563;50.084;14.468;2023-07-08T00:59:08;3.83;;;2.70;;
81056;SDS011;70563;50.084;14.468;2023-07-08T01:01:41;5.43;;;2.70;;
81056;SDS011;70563;50.084;14.468;2023-07-08T01:04:17;3.72;;;2.55;;
81056;SDS011;70563;50.084;14.468;2023-07-08T01:06:48;5.18;;;2.78;;
81056;SDS011;70563;50.084;14.468;2023-07-08T01:09:23;4.13;;;2.92;;
81056;SDS011;70563;50.084;14.468;2023-07-08T01:11:51;3.50;;;2.55;;
81056;SDS011;70563;50.084;14.468;2023-07-08T01:14:18;3.95;;;2.72;;
81056;SDS011;70563;50.084;14.468;2023-07-08T01:16:46;5.00;;;2.97;;
81056;SDS011;70563;50.084;14.468;2023-07-08T01:19:13;4.40;;;2.80;;
81056;SDS011;70563;50.084;14.468;2023-07-08T01:21:46;4.82;;;2.90;;
81056;SDS011;70563;50.084;14.468;2023-07-08T01:24:26;5.10;;;3.10;;
81056;SDS011;70563;50.084;14.468;2023-07-08T01:26:54;3.92;;;2.53;;
81056;SDS011;70563;50.084;14.468;2023-07-08T01:29:20;3.38;;;2.40;;
81056;SDS011;70563;50.084;14.468;2023-07-08T01:31:45;4.28;;;2.85;;
81056;SDS011;70563;50.084;14.468;2023-07-08T01:34:14;5.03;;;3.08;;
81056;SDS011;70563;50.084;14.468;2023-07-08T01:36:41;5.68;;;3.28;;
81056;SDS011;70563;50.084;14.468;2023-07-08T01:39:13;5.38;;;2.42;;
81056;SDS011;70563;50.084;14.468;2023-07-08T01:41:42;4.25;;;2.95;;
81056;SDS011;70563;50.084;14.468;2023-07-08T01:47:21;5.30;;;3.05;;
81056;SDS011;70563;50.084;14.468;2023-07-08T01:49:47;5.78;;;3.03;;
81056;SDS011;70563;50.084;14.468;2023-07-08T01:52:14;4.78;;;2.65;;
81056;SDS011;70563;50.084;14.468;2023-07-08T01:54:42;4.35;;;2.80;;
81056;SDS011;70563;50.084;14.468;2023-07-08T01:57:07;4.60;;;3.00;;
81056;SDS011;70563;50.084;14.468;2023-07-08T01:59:32;3.85;;;3.05;;
81056;SDS011;70563;50.084;14.468;2023-07-08T02:01:58;5.22;;;2.97;;
81056;SDS011;70563;50.084;14.468;2023-07-08T02:04:24;3.70;;;2.63;;
81056;SDS011;70563;50.084;14.468;2023-07-08T02:06:54;4.03;;;2.88;;
81056;SDS011;70563;50.084;14.468;2023-07-08T02:09:20;4.75;;;2.97;;
81056;SDS011;70563;50.084;14.468;2023-07-08T02:11:46;5.15;;;3.13;;
81056;SDS011;70563;50.084;14.468;2023-07-08T02:14:11;5.65;;;3.25;;
81056;SDS011;70563;50.084;14.468;2023-07-08T02:16:37;3.92;;;3.22;;
81056;SDS011;70563;50.084;14.468;2023-07-08T02:19:02;4.60;;;3.15;;
81056;SDS011;70563;50.084;14.468;2023-07-08T02:21:27;5.28;;;3.10;;
81056;SDS011;70563;50.084;14.468;2023-07-08T02:23:56;3.80;;;3.03;;
81056;SDS011;70563;50.084;14.468;2023-07-08T02:26:21;5.70;;;3.15;;
81056;SDS011;70563;50.084;14.468;2023-07-08T02:28:47;5.50;;;3.20;;
81056;SDS011;70563;50.084;14.468;2023-07-08T02:31:12;4.00;;;3.13;;
81056;SDS011;70563;50.084;14.468;2023-07-08T02:33:37;5.40;;;3.00;;
81056;SDS011;70563;50.084;14.468;2023-07-08T02:36:03;6.13;;;3.17;;
81056;SDS011;70563;50.084;14.468;2023-07-08T02:38:28;4.47;;;2.78;;
81056;SDS011;70563;50.084;14.468;2023-07-08T02:40:54;5.82;;;2.90;;
81056;SDS011;70563;50.084;14.468;2023-07-08T02:43:19;4.75;;;3.13;;
81056;SDS011;70563;50.084;14.468;2023-07-08T02:45:45;4.05;;;2.90;;
81056;SDS011;70563;50.084;14.468;2023-07-08T02:48:13;5.82;;;3.25;;
81056;SDS011;70563;50.084;14.468;2023-07-08T02:50:38;4.75;;;3.20;;
81056;SDS011;70563;50.084;14.468;2023-07-08T02:53:04;4.53;;;2.80;;
81056;SDS011;70563;50.084;14.468;2023-07-08T02:55:29;3.85;;;2.97;;
81056;SDS011;70563;50.084;14.468;2023-07-08T02:57:55;9.00;;;3.45;;
81056;SDS011;70563;50.084;14.468;2023-07-08T03:00:21;7.20;;;3.50;;
81056;SDS011;70563;50.084;14.468;2023-07-08T03:02:46;4.97;;;3.22;;
81056;SDS011;70563;50.084;14.468;2023-07-08T03:05:11;5.43;;;3.20;;
81056;SDS011;70563;50.084;14.468;2023-07-08T03:07:37;4.55;;;3.15;;
81056;SDS011;70563;50.084;14.468;2023-07-08T03:10:02;6.95;;;3.33;;
81056;SDS011;70563;50.084;14.468;2023-07-08T03:12:28;7.72;;;3.40;;
81056;SDS011;70563;50.084;14.468;2023-07-08T03:14:54;5.80;;;3.33;;
81056;SDS011;70563;50.084;14.468;2023-07-08T03:17:19;7.00;;;3.35;;
81056;SDS011;70563;50.084;14.468;2023-07-08T03:19:44;6.28;;;3.13;;
81056;SDS011;70563;50.084;14.468;2023-07-08T03:22:10;7.47;;;3.33;;
81056;SDS011;70563;50.084;14.468;2023-07-08T03:24:35;4.88;;;2.92;;
81056;SDS011;70563;50.084;14.468;2023-07-08T03:27:01;5.18;;;3.72;;
81056;SDS011;70563;50.084;14.468;2023-07-08T03:29:29;5.38;;;3.70;;
81056;SDS011;70563;50.084;14.468;2023-07-08T03:31:55;8.13;;;4.10;;
81056;SDS011;70563;50.084;14.468;2023-07-08T03:34:20;7.40;;;3.95;;
81056;SDS011;70563;50.084;14.468;2023-07-08T03:36:46;4.35;;;2.80;;
81056;SDS011;70563;50.084;14.468;2023-07-08T03:39:17;4.47;;;3.25;;
81056;SDS011;70563;50.084;14.468;2023-07-08T03:41:44;5.97;;;3.30;;
81056;SDS011;70563;50.084;14.468;2023-07-08T03:44:11;4.53;;;3.42;;
81056;SDS011;70563;50.084;14.468;2023-07-08T03:46:37;6.55;;;3.72;;
81056;SDS011;70563;50.084;14.468;2023-07-08T03:49:03;6.63;;;3.22;;
81056;SDS011;70563;50.084;14.468;2023-07-08T03:51:30;4.55;;;2.95;;
81056;SDS011;70563;50.084;14.468;2023-07-08T03:53:58;6.43;;;3.15;;
81056;SDS011;70563;50.084;14.468;2023-07-08T03:56:23;5.25;;;3.15;;
81056;SDS011;70563;50.084;14.468;2023-07-08T03:58:49;4.68;;;3.08;;
81056;SDS011;70563;50.084;14.468;2023-07-08T04:01:16;4.32;;;3.22;;
81056;SDS011;70563;50.084;14.468;2023-07-08T04:03:43;5.80;;;3.50;;
81056;SDS011;70563;50.084;14.468;2023-07-08T04:06:09;8.15;;;4.43;;
81056;SDS011;70563;50.084;14.468;2023-07-08T04:08:34;10.63;;;3.65;;
81056;SDS011;70563;50.084;14.468;2023-07-08T04:11:00;5.47;;;3.58;;
81056;SDS011;70563;50.084;14.468;2023-07-08T04:13:25;5.35;;;3.38;;
81056;SDS011;70563;50.084;14.468;2023-07-08T04:15:51;5.47;;;3.33;;
81056;SDS011;70563;50.084;14.468;2023-07-08T04:18:21;6.22;;;3.33;;
81056;SDS011;70563;50.084;14.468;2023-07-08T04:20:46;5.55;;;3.33;;
81056;SDS011;70563;50.084;14.468;2023-07-08T04:23:17;5.72;;;3.47;;
81056;SDS011;70563;50.084;14.468;2023-07-08T04:25:45;3.67;;;3.20;;
81056;SDS011;70563;50.084;14.468;2023-07-08T04:28:12;5.53;;;3.67;;
81056;SDS011;70563;50.084;14.468;2023-07-08T04:30:38;5.20;;;3.63;;
81056;SDS011;70563;50.084;14.468;2023-07-08T04:33:13;5.50;;;3.63;;
81056;SDS011;70563;50.084;14.468;2023-07-08T04:35:40;4.75;;;3.28;;
81056;SDS011;70563;50.084;14.468;2023-07-08T04:38:07;4.80;;;3.53;;
81056;SDS011;70563;50.084;14.468;2023-07-08T04:40:39;5.93;;;3.75;;
81056;SDS011;70563;50.084;14.468;2023-07-08T04:43:07;6.68;;;3.53;;
81056;SDS011;70563;50.084;14.468;2023-07-08T04:45:35;4.63;;;3.40;;
81056;SDS011;70563;50.084;14.468;2023-07-08T04:48:02;5.05;;;3.17;;
81056;SDS011;70563;50.084;14.468;2023-07-08T04:50:33;4.68;;;3.38;;
81056;SDS011;70563;50.084;14.468;2023-07-08T04:53:02;5.05;;;2.80;;
81056;SDS011;70563;50.084;14.468;2023-07-08T04:55:28;6.97;;;3.40;;
81056;SDS011;70563;50.084;14.468;2023-07-08T04:57:53;4.93;;;3.20;;
81056;SDS011;70563;50.084;14.468;2023-07-08T05:00:18;4.03;;;3.17;;
81056;SDS011;70563;50.084;14.468;2023-07-08T05:02:44;5.65;;;3.50;;
81056;SDS011;70563;50.084;14.468;2023-07-08T05:05:10;5.80;;;3.58;;
81056;SDS011;70563;50.084;14.468;2023-07-08T05:07:35;7.75;;;3.53;;
81056;SDS011;70563;50.084;14.468;2023-07-08T05:10:01;5.70;;;3.97;;
81056;SDS011;70563;50.084;14.468;2023-07-08T05:12:26;4.82;;;3.13;;
81056;SDS011;70563;50.084;14.468;2023-07-08T05:14:52;3.97;;;3.33;;
81056;SDS011;70563;50.084;14.468;2023-07-08T05:17:17;7.40;;;3.55;;
81056;SDS011;70563;50.084;14.468;2023-07-08T05:19:43;4.78;;;3.55;;
81056;SDS011;70563;50.084;14.468;2023-07-08T05:22:10;4.65;;;3.53;;
81056;SDS011;70563;50.084;14.468;2023-07-08T05:24:36;4.57;;;3.30;;
81056;SDS011;70563;50.084;14.468;2023-07-08T05:27:02;5.95;;;3.50;;
81056;SDS011;70563;50.084;14.468;2023-07-08T05:29:28;5.85;;;3.78;;
81056;SDS011;70563;50.084;14.468;2023-07-08T05:31:53;3.85;;;2.90;;
81056;SDS011;70563;50.084;14.468;2023-07-08T05:34:19;5.65;;;3.03;;
81056;SDS011;70563;50.084;14.468;2023-07-08T05:36:44;4.50;;;3.60;;
81056;SDS011;70563;50.084;14.468;2023-07-08T05:39:10;4.03;;;3.20;;
81056;SDS011;70563;50.084;14.468;2023-07-08T05:41:35;8.63;;;4.00;;
81056;SDS011;70563;50.084;14.468;2023-07-08T05:44:01;5.78;;;3.08;;
81056;SDS011;70563;50.084;14.468;2023-07-08T05:46:26;9.52;;;3.47;;
81056;SDS011;70563;50.084;14.468;2023-07-08T05:48:52;6.43;;;3.53;;
81056;SDS011;70563;50.084;14.468;2023-07-08T05:51:17;7.47;;;3.28;;
81056;SDS011;70563;50.084;14.468;2023-07-08T05:53:43;6.25;;;4.22;;
81056;SDS011;70563;50.084;14.468;2023-07-08T05:56:08;5.13;;;3.20;;
81056;SDS011;70563;50.084;14.468;2023-07-08T05:58:33;5.57;;;3.58;;
81056;SDS011;70563;50.084;14.468;2023-07-08T06:00:59;4.97;;;3.40;;
81056;SDS011;70563;50.084;14.468;2023-07-08T06:03:24;3.42;;;2.78;;
81056;SDS011;70563;50.084;14.468;2023-07-08T06:05:50;6.72;;;3.17;;
81056;SDS011;70563;50.084;14.468;2023-07-08T06:08:15;6.20;;;3.53;;
81056;SDS011;70563;50.084;14.468;2023-07-08T06:10:41;7.32;;;3.88;;
81056;SDS011;70563;50.084;14.468;2023-07-08T06:13:08;4.72;;;3.03;;
81056;SDS011;70563;50.084;14.468;2023-07-08T06:15:34;5.40;;;3.63;;
81056;SDS011;70563;50.084;14.468;2023-07-08T06:17:59;6.07;;;2.92;;
81056;SDS011;70563;50.084;14.468;2023-07-08T06:20:27;5.82;;;3.38;;
81056;SDS011;70563;50.084;14.468;2023-07-08T06:22:52;6.35;;;3.92;;
81056;SDS011;70563;50.084;14.468;2023-07-08T06:25:18;5.13;;;2.88;;
81056;SDS011;70563;50.084;14.468;2023-07-08T06:27:43;4.80;;;2.97;;
81056;SDS011;70563;50.084;14.468;2023-07-08T06:30:09;5.53;;;2.88;;
81056;SDS011;70563;50.084;14.468;2023-07-08T06:32:34;6.68;;;3.55;;
81056;SDS011;70563;50.084;14.468;2023-07-08T06:35:00;6.53;;;3.10;;
81056;SDS011;70563;50.084;14.468;2023-07-08T06:37:25;5.20;;;3.17;;
81056;SDS011;70563;50.084;14.468;2023-07-08T06:39:50;6.13;;;2.92;;
81056;SDS011;70563;50.084;14.468;2023-07-08T06:42:16;4.53;;;3.00;;
81056;SDS011;70563;50.084;14.468;2023-07-08T06:44:41;9.35;;;3.28;;
81056;SDS011;70563;50.084;14.468;2023-07-08T06:47:15;4.38;;;3.65;;
81056;SDS011;70563;50.084;14.468;2023-07-08T06:49:40;5.03;;;3.10;;
81056;SDS011;70563;50.084;14.468;2023-07-08T06:52:06;6.70;;;3.15;;
81056;SDS011;70563;50.084;14.468;2023-07-08T06:54:32;5.75;;;3.15;;
81056;SDS011;70563;50.084;14.468;2023-07-08T06:56:57;4.90;;;3.17;;
81056;SDS011;70563;50.084;14.468;2023-07-08T06:59:22;5.97;;;3.55;;
81056;SDS011;70563;50.084;14.468;2023-07-08T07:01:48;8.82;;;3.35;;
81056;SDS011;70563;50.084;14.468;2023-07-08T07:04:13;7.38;;;3.55;;
81056;SDS011;70563;50.084;14.468;2023-07-08T07:06:39;11.32;;;3.55;;
81056;SDS011;70563;50.084;14.468;2023-07-08T07:09:04;9.10;;;3.53;;
81056;SDS011;70563;50.084;14.468;2023-07-08T07:11:29;6.35;;;3.67;;
81056;SDS011;70563;50.084;14.468;2023-07-08T07:13:55;6.65;;;3.20;;
81056;SDS011;70563;50.084;14.468;2023-07-08T07:16:20;5.65;;;3.58;;
81056;SDS011;70563;50.084;14.468;2023-07-08T07:18:45;3.42;;;3.13;;
81056;SDS011;70563;50.084;14.468;2023-07-08T07:21:11;4.75;;;3.20;;
81056;SDS011;70563;50.084;14.468;2023-07-08T07:23:37;4.97;;;3.00;;
81056;SDS011;70563;50.084;14.468;2023-07-08T07:26:02;6.25;;;3.05;;
81056;SDS011;70563;50.084;14.468;2023-07-08T07:28:28;5.70;;;2.90;;
81056;SDS011;70563;50.084;14.468;2023-07-08T07:30:57;7.10;;;3.20;;
81056;SDS011;70563;50.084;14.468;2023-07-08T07:33:24;5.07;;;2.95;;
81056;SDS011;70563;50.084;14.468;2023-07-08T07:35:50;6.20;;;3.28;;
81056;SDS011;70563;50.084;14.468;2023-07-08T07:38:15;5.70;;;2.97;;
81056;SDS011;70563;50.084;14.468;2023-07-08T07:40:44;4.82;;;2.83;;
81056;SDS011;70563;50.084;14.468;2023-07-08T07:43:10;4.80;;;2.97;;
81056;SDS011;70563;50.084;14.468;2023-07-08T07:45:35;3.28;;;2.63;;
81056;SDS011;70563;50.084;14.468;2023-07-08T07:48:01;3.33;;;2.80;;
81056;SDS011;70563;50.084;14.468;2023-07-08T07:50:26;7.03;;;3.20;;
81056;SDS011;70563;50.084;14.468;2023-07-08T07:52:52;4.45;;;3.63;;
81056;SDS011;70563;50.084;14.468;2023-07-08T07:55:17;4.20;;;3.20;;
81056;SDS011;70563;50.084;14.468;2023-07-08T07:57:43;9.38;;;3.30;;
81056;SDS011;70563;50.084;14.468;2023-07-08T08:00:11;7.90;;;2.90;;
81056;SDS011;70563;50.084;14.468;2023-07-08T08:02:36;7.40;;;3.92;;
81056;SDS011;70563;50.084;14.468;2023-07-08T08:05:02;5.47;;;3.28;;
81056;SDS011;70563;50.084;14.468;2023-07-08T08:07:27;5.60;;;2.92;;
81056;SDS011;70563;50.084;14.468;2023-07-08T08:09:53;4.55;;;2.88;;
81056;SDS011;70563;50.084;14.468;2023-07-08T08:12:18;3.33;;;2.95;;
81056;SDS011;70563;50.084;14.468;2023-07-08T08:14:44;5.18;;;3.50;;
81056;SDS011;70563;50.084;14.468;2023-07-08T08:17:09;5.05;;;2.97;;
81056;SDS011;70563;50.084;14.468;2023-07-08T08:19:35;8.90;;;3.38;;
81056;SDS011;70563;50.084;14.468;2023-07-08T08:22:00;4.07;;;3.20;;
81056;SDS011;70563;50.084;14.468;2023-07-08T08:24:26;3.35;;;2.75;;
81056;SDS011;70563;50.084;14.468;2023-07-08T08:26:51;4.97;;;2.85;;
81056;SDS011;70563;50.084;14.468;2023-07-08T08:29:17;6.32;;;3.03;;
81056;SDS011;70563;50.084;14.468;2023-07-08T08:31:42;18.35;;;4.00;;
81056;SDS011;70563;50.084;14.468;2023-07-08T08:34:07;3.50;;;3.05;;
81056;SDS011;70563;50.084;14.468;2023-07-08T08:36:32;7.82;;;2.95;;
81056;SDS011;70563;50.084;14.468;2023-07-08T08:38:58;3.65;;;2.42;;
81056;SDS011;70563;50.084;14.468;2023-07-08T08:41:30;4.55;;;2.88;;
81056;SDS011;70563;50.084;14.468;2023-07-08T08:43:58;4.30;;;2.83;;
81056;SDS011;70563;50.084;14.468;2023-07-08T08:46:32;4.38;;;3.08;;
81056;SDS011;70563;50.084;14.468;2023-07-08T08:51:38;4.05;;;2.80;;
81056;SDS011;70563;50.084;14.468;2023-07-08T08:54:04;4.03;;;2.58;;
81056;SDS011;70563;50.084;14.468;2023-07-08T08:56:34;5.60;;;2.80;;
81056;SDS011;70563;50.084;14.468;2023-07-08T08:59:35;6.57;;;3.30;;
81056;SDS011;70563;50.084;14.468;2023-07-08T09:04:52;3.38;;;2.80;;
81056;SDS011;70563;50.084;14.468;2023-07-08T09:07:18;5.68;;;3.00;;
81056;SDS011;70563;50.084;14.468;2023-07-08T09:09:54;6.97;;;2.70;;
81056;SDS011;70563;50.084;14.468;2023-07-08T09:12:27;3.58;;;2.58;;
81056;SDS011;70563;50.084;14.468;2023-07-08T09:14:54;5.40;;;2.42;;
81056;SDS011;70563;50.084;14.468;2023-07-08T09:22:48;4.82;;;2.65;;
81056;SDS011;70563;50.084;14.468;2023-07-08T09:27:41;4.53;;;2.60;;
81056;SDS011;70563;50.084;14.468;2023-07-08T09:30:09;3.85;;;2.53;;
81056;SDS011;70563;50.084;14.468;2023-07-08T09:32:39;3.95;;;3.03;;
81056;SDS011;70563;50.084;14.468;2023-07-08T09:35:06;3.00;;;2.35;;
81056;SDS011;70563;50.084;14.468;2023-07-08T09:37:36;4.32;;;2.72;;
81056;SDS011;70563;50.084;14.468;2023-07-08T09:40:04;6.65;;;2.70;;
81056;SDS011;70563;50.084;14.468;2023-07-08T09:42:51;3.38;;;2.42;;
81056;SDS011;70563;50.084;14.468;2023-07-08T09:47:47;2.95;;;2.42;;
81056;SDS011;70563;50.084;14.468;2023-07-08T09:50:18;2.50;;;2.25;;
81056;SDS011;70563;50.084;14.468;2023-07-08T09:52:50;3.63;;;2.50;;
81056;SDS011;70563;50.084;14.468;2023-07-08T09:55:17;4.28;;;2.80;;
81056;SDS011;70563;50.084;14.468;2023-07-08T09:57:43;3.55;;;2.47;;
81056;SDS011;70563;50.084;14.468;2023-07-08T10:00:11;4.57;;;2.70;;
81056;SDS011;70563;50.084;14.468;2023-07-08T10:02:43;3.65;;;2.75;;
81056;SDS011;70563;50.084;14.468;2023-07-08T10:05:45;5.40;;;2.80;;
81056;SDS011;70563;50.084;14.468;2023-07-08T10:08:10;9.60;;;2.92;;
81056;SDS011;70563;50.084;14.468;2023-07-08T10:10:39;2.97;;;2.65;;
81056;SDS011;70563;50.084;14.468;2023-07-08T10:13:26;2.90;;;2.60;;
81056;SDS011;70563;50.084;14.468;2023-07-08T10:15:55;3.95;;;2.70;;
81056;SDS011;70563;50.084;14.468;2023-07-08T10:18:25;3.08;;;2.78;;
81056;SDS011;70563;50.084;14.468;2023-07-08T10:21:00;3.83;;;2.50;;
81056;SDS011;70563;50.084;14.468;2023-07-08T10:26:26;6.30;;;2.90;;
81056;SDS011;70563;50.084;14.468;2023-07-08T10:29:04;3.65;;;2.38;;
81056;SDS011;70563;50.084;14.468;2023-07-08T10:31:51;3.03;;;2.22;;
81056;SDS011;70563;50.084;14.468;2023-07-08T10:42:41;5.57;;;2.80;;
81056;SDS011;70563;50.084;14.468;2023-07-08T10:45:20;3.40;;;2.28;;
81056;SDS011;70563;50.084;14.468;2023-07-08T10:54:05;3.35;;;2.50;;
81056;SDS011;70563;50.084;14.468;2023-07-08T10:56:54;3.80;;;2.60;;
81056;SDS011;70563;50.084;14.468;2023-07-08T10:59:34;4.57;;;2.75;;
81056;SDS011;70563;50.084;14.468;2023-07-08T11:02:27;3.55;;;2.60;;
81056;SDS011;70563;50.084;14.468;2023-07-08T11:04:50;5.75;;;2.67;;
81056;SDS011;70563;50.084;14.468;2023-07-08T11:07:40;5.15;;;2.85;;
81056;SDS011;70563;50.084;14.468;2023-07-08T11:12:44;4.50;;;2.28;;
81056;SDS011;70563;50.084;14.468;2023-07-08T11:15:20;4.55;;;2.40;;
81056;SDS011;70563;50.084;14.468;2023-07-08T11:18:04;2.55;;;2.25;;
81056;SDS011;70563;50.084;14.468;2023-07-08T11:20:38;4.88;;;2.67;;
81056;SDS011;70563;50.084;14.468;2023-07-08T11:23:08;4.88;;;2.55;;
81056;SDS011;70563;50.084;14.468;2023-07-08T11:25:35;3.17;;;2.15;;
81056;SDS011;70563;50.084;14.468;2023-07-08T11:28:03;3.03;;;2.50;;
81056;SDS011;70563;50.084;14.468;2023-07-08T11:30:30;2.75;;;2.35;;
81056;SDS011;70563;50.084;14.468;2023-07-08T11:38:14;3.78;;;2.47;;
81056;SDS011;70563;50.084;14.468;2023-07-08T11:43:21;4.45;;;2.47;;
81056;SDS011;70563;50.084;14.468;2023-07-08T11:45:50;3.95;;;2.17;;
81056;SDS011;70563;50.084;14.468;2023-07-08T11:48:21;2.97;;;1.98;;
81056;SDS011;70563;50.084;14.468;2023-07-08T11:50:50;2.58;;;2.38;;
81056;SDS011;70563;50.084;14.468;2023-07-08T11:55:58;5.78;;;2.72;;
81056;SDS011;70563;50.084;14.468;2023-07-08T11:58:26;2.30;;;1.90;;
81056;SDS011;70563;50.084;14.468;2023-07-08T12:01:01;3.75;;;2.40;;
81056;SDS011;70563;50.084;14.468;2023-07-08T12:03:38;2.63;;;2.10;;
81056;SDS011;70563;50.084;14.468;2023-07-08T12:08:55;4.82;;;2.55;;
81056;SDS011;70563;50.084;14.468;2023-07-08T12:11:32;3.95;;;2.55;;
81056;SDS011;70563;50.084;14.468;2023-07-08T12:13:59;2.70;;;2.33;;
81056;SDS011;70563;50.084;14.468;2023-07-08T12:16:26;4.90;;;2.30;;
81056;SDS011;70563;50.084;14.468;2023-07-08T12:18:53;2.30;;;2.10;;
81056;SDS011;70563;50.084;14.468;2023-07-08T12:21:22;3.47;;;2.53;;
81056;SDS011;70563;50.084;14.468;2023-07-08T12:23:48;6.50;;;2.70;;
81056;SDS011;70563;50.084;14.468;2023-07-08T12:26:14;3.97;;;2.50;;
81056;SDS011;70563;50.084;14.468;2023-07-08T12:28:40;2.77;;;2.13;;
81056;SDS011;70563;50.084;14.468;2023-07-08T12:31:23;3.75;;;2.42;;
81056;SDS011;70563;50.084;14.468;2023-07-08T12:33:50;2.53;;;2.33;;
81056;SDS011;70563;50.084;14.468;2023-07-08T12:36:20;3.15;;;2.55;;
81056;SDS011;70563;50.084;14.468;2023-07-08T12:38:48;4.55;;;2.65;;
81056;SDS011;70563;50.084;14.468;2023-07-08T12:41:19;3.22;;;2.53;;
81056;SDS011;70563;50.084;14.468;2023-07-08T12:43:47;3.28;;;2.50;;
81056;SDS011;70563;50.084;14.468;2023-07-08T12:46:14;2.50;;;2.28;;
81056;SDS011;70563;50.084;14.468;2023-07-08T12:48:42;9.45;;;2.40;;
81056;SDS011;70563;50.084;14.468;2023-07-08T12:51:11;6.65;;;2.78;;
81056;SDS011;70563;50.084;14.468;2023-07-08T12:53:39;3.25;;;2.40;;
81056;SDS011;70563;50.084;14.468;2023-07-08T12:56:05;4.00;;;2.05;;
81056;SDS011;70563;50.084;14.468;2023-07-08T12:58:33;9.90;;;2.47;;
81056;SDS011;70563;50.084;14.468;2023-07-08T13:01:03;3.08;;;2.30;;
81056;SDS011;70563;50.084;14.468;2023-07-08T13:03:33;2.72;;;2.22;;
81056;SDS011;70563;50.084;14.468;2023-07-08T13:06:02;3.75;;;2.30;;
81056;SDS011;70563;50.084;14.468;2023-07-08T13:08:29;3.38;;;2.40;;
81056;SDS011;70563;50.084;14.468;2023-07-08T13:10:59;3.10;;;2.58;;
81056;SDS011;70563;50.084;14.468;2023-07-08T13:13:31;2.55;;;2.35;;
81056;SDS011;70563;50.084;14.468;2023-07-08T13:16:00;7.22;;;2.53;;
81056;SDS011;70563;50.084;14.468;2023-07-08T13:18:36;4.88;;;3.00;;
81056;SDS011;70563;50.084;14.468;2023-07-08T13:21:04;2.97;;;2.50;;
81056;SDS011;70563;50.084;14.468;2023-07-08T13:23:31;3.55;;;2.55;;
81056;SDS011;70563;50.084;14.468;2023-07-08T13:25:58;3.60;;;2.25;;
81056;SDS011;70563;50.084;14.468;2023-07-08T13:28:28;3.30;;;2.40;;
81056;SDS011;70563;50.084;14.468;2023-07-08T13:31:01;3.40;;;2.38;;
81056;SDS011;70563;50.084;14.468;2023-07-08T13:33:29;3.25;;;2.70;;
81056;SDS011;70563;50.084;14.468;2023-07-08T13:35:56;4.75;;;2.90;;
81056;SDS011;70563;50.084;14.468;2023-07-08T13:38:23;2.15;;;1.95;;
81056;SDS011;70563;50.084;14.468;2023-07-08T13:40:54;3.28;;;2.47;;
81056;SDS011;70563;50.084;14.468;2023-07-08T13:43:23;2.65;;;2.35;;
81056;SDS011;70563;50.084;14.468;2023-07-08T13:45:53;2.60;;;2.30;;
81056;SDS011;70563;50.084;14.468;2023-07-08T13:48:27;3.88;;;2.45;;
81056;SDS011;70563;50.084;14.468;2023-07-08T13:50:55;4.72;;;2.50;;
81056;SDS011;70563;50.084;14.468;2023-07-08T13:53:45;3.58;;;2.25;;
81056;SDS011;70563;50.084;14.468;2023-07-08T13:56:19;3.17;;;2.70;;
81056;SDS011;70563;50.084;14.468;2023-07-08T13:58:46;3.80;;;2.65;;
81056;SDS011;70563;50.084;14.468;2023-07-08T14:01:17;3.60;;;2.08;;
81056;SDS011;70563;50.084;14.468;2023-07-08T14:03:50;2.97;;;2.55;;
81056;SDS011;70563;50.084;14.468;2023-07-08T14:06:17;2.78;;;2.35;;
81056;SDS011;70563;50.084;14.468;2023-07-08T14:08:44;3.92;;;2.70;;
81056;SDS011;70563;50.084;14.468;2023-07-08T14:11:10;4.53;;;2.47;;
81056;SDS011;70563;50.084;14.468;2023-07-08T14:13:35;4.35;;;2.00;;
81056;SDS011;70563;50.084;14.468;2023-07-08T14:16:01;3.38;;;2.50;;
81056;SDS011;70563;50.084;14.468;2023-07-08T14:18:29;3.13;;;2.38;;
81056;SDS011;70563;50.084;14.468;2023-07-08T14:20:55;3.78;;;2.63;;
81056;SDS011;70563;50.084;14.468;2023-07-08T14:23:20;5.75;;;2.60;;
81056;SDS011;70563;50.084;14.468;2023-07-08T14:25:46;3.03;;;2.30;;
81056;SDS011;70563;50.084;14.468;2023-07-08T14:28:11;3.17;;;2.50;;
81056;SDS011;70563;50.084;14.468;2023-07-08T14:30:46;4.03;;;2.45;;
81056;SDS011;70563;50.084;14.468;2023-07-08T14:33:12;5.28;;;2.80;;
81056;SDS011;70563;50.084;14.468;2023-07-08T14:35:38;3.97;;;2.70;;
81056;SDS011;70563;50.084;14.468;2023-07-08T14:38:11;3.15;;;2.50;;
81056;SDS011;70563;50.084;14.468;2023-07-08T14:40:38;3.83;;;2.70;;
81056;SDS011;70563;50.084;14.468;2023-07-08T14:43:06;4.13;;;2.60;;
81056;SDS011;70563;50.084;14.468;2023-07-08T14:45:41;2.75;;;2.25;;
81056;SDS011;70563;50.084;14.468;2023-07-08T14:48:11;2.92;;;2.42;;
81056;SDS011;70563;50.084;14.468;2023-07-08T14:50:37;3.65;;;2.65;;
81056;SDS011;70563;50.084;14.468;2023-07-08T14:53:03;4.28;;;2.90;;
81056;SDS011;70563;50.084;14.468;2023-07-08T14:55:29;4.45;;;2.80;;
81056;SDS011;70563;50.084;14.468;2023-07-08T14:57:54;5.40;;;2.83;;
81056;SDS011;70563;50.084;14.468;2023-07-08T15:00:21;2.78;;;2.25;;
81056;SDS011;70563;50.084;14.468;2023-07-08T15:02:47;3.72;;;2.88;;
81056;SDS011;70563;50.084;14.468;2023-07-08T15:05:15;5.68;;;2.42;;
81056;SDS011;70563;50.084;14.468;2023-07-08T15:07:41;3.03;;;2.40;;
81056;SDS011;70563;50.084;14.468;2023-07-08T15:10:07;3.83;;;2.80;;
81056;SDS011;70563;50.084;14.468;2023-07-08T15:12:33;5.95;;;2.75;;
81056;SDS011;70563;50.084;14.468;2023-07-08T15:14:58;3.65;;;2.25;;
81056;SDS011;70563;50.084;14.468;2023-07-08T15:17:24;3.92;;;2.88;;
81056;SDS011;70563;50.084;14.468;2023-07-08T15:19:50;3.65;;;2.90;;
81056;SDS011;70563;50.084;14.468;2023-07-08T15:22:16;3.85;;;2.75;;
81056;SDS011;70563;50.084;14.468;2023-07-08T15:24:41;6.25;;;2.88;;
81056;SDS011;70563;50.084;14.468;2023-07-08T15:27:09;4.47;;;2.83;;
81056;SDS011;70563;50.084;14.468;2023-07-08T15:29:36;2.85;;;2.20;;
81056;SDS011;70563;50.084;14.468;2023-07-08T15:32:02;3.70;;;2.50;;
81056;SDS011;70563;50.084;14.468;2023-07-08T15:34:27;5.40;;;2.63;;
81056;SDS011;70563;50.084;14.468;2023-07-08T15:36:53;4.22;;;2.95;;